createdAt,value
2023-04-01T00:11:12.129Z,2.1
2023-04-01T00:26:23.035Z,2.2
2023-04-01T00:41:33.137Z,2.3
2023-04-01T00:56:42.887Z,2.1
2023-04-01T01:11:52.407Z,1.7
2023-04-01T01:27:02.631Z,1.6
2023-04-01T01:42:11.949Z,1.6
2023-04-01T01:57:21.791Z,1.8
2023-04-01T02:12:31.530Z,2
2023-04-01T02:27:41.124Z,2
2023-04-01T02:42:50.482Z,2
2023-04-01T02:58:01.108Z,1.6
2023-04-01T03:13:10.400Z,1.4
2023-04-01T03:28:19.846Z,1.4
2023-04-01T03:43:29.815Z,1.9
2023-04-01T03:58:39.199Z,1.5
2023-04-01T04:13:49.036Z,1.6
2023-04-01T04:28:58.766Z,1.3
2023-04-01T04:44:08.285Z,1.3
2023-04-01T04:59:18.106Z,1.2
2023-04-01T05:14:27.332Z,1.7
2023-04-01T05:29:36.508Z,1.9
2023-04-01T05:44:45.884Z,2.3
2023-04-01T05:59:56.198Z,1.7
2023-04-01T06:15:06.347Z,1.4
2023-04-01T06:30:16.284Z,1.6
2023-04-01T06:45:26.301Z,1.9
2023-04-01T07:00:35.730Z,1.8
2023-04-01T07:16:04.571Z,1.9
2023-04-01T07:31:37.231Z,1.9
2023-04-01T07:46:46.935Z,1.6
2023-04-01T08:01:56.817Z,2.2
2023-04-01T08:17:06.449Z,2.2
2023-04-01T08:32:16.500Z,1.9
2023-04-01T08:47:27.056Z,1.9
2023-04-01T09:02:39.305Z,1.5
2023-04-01T09:17:57.965Z,1.8
2023-04-01T09:33:12.399Z,2.1
2023-04-01T09:48:22.365Z,1.4
2023-04-01T10:03:32.146Z,1.7
2023-04-01T10:18:41.779Z,1.3
2023-04-01T10:33:51.622Z,1.5
2023-04-01T10:49:01.145Z,1.8
2023-04-01T11:04:10.979Z,1.5
2023-04-01T11:19:20.494Z,1.5
2023-04-01T11:34:29.737Z,1.4
2023-04-01T11:49:39.361Z,1.7
2023-04-01T12:04:49.201Z,1.6
2023-04-01T12:19:59.224Z,1.4
2023-04-01T12:35:08.775Z,1.9
2023-04-01T12:50:18.610Z,1.7
2023-04-01T13:05:27.957Z,2.7
2023-04-01T13:20:37.512Z,1.9
2023-04-01T13:35:47.360Z,3
2023-04-01T13:50:56.928Z,2
2023-04-01T14:06:06.707Z,2.1
2023-04-01T14:21:15.738Z,1.9
2023-04-01T14:36:25.117Z,1.4
2023-04-01T14:51:34.297Z,1.5
2023-04-01T15:06:43.485Z,1.2
2023-04-01T15:21:52.975Z,1.5
2023-04-01T15:37:02.382Z,1.5
2023-04-01T15:52:11.784Z,1.5
2023-04-01T16:07:21.142Z,1.6
2023-04-01T16:22:31.001Z,1.5
2023-04-01T16:37:40.532Z,1.2
2023-04-01T16:52:49.671Z,1.4
2023-04-01T17:07:59.022Z,1.5
2023-04-01T17:23:08.303Z,1.6
2023-04-01T17:38:18.338Z,1.3
2023-04-01T17:53:28.027Z,1.7
2023-04-01T18:08:37.443Z,1.6
2023-04-01T18:24:02.102Z,1.4
2023-04-01T18:39:12.590Z,1.6
2023-04-01T18:54:22.278Z,2.4
2023-04-01T19:09:31.645Z,1.9
2023-04-01T19:24:42.361Z,2.4
2023-04-01T19:39:51.590Z,2.5
2023-04-01T19:55:00.782Z,2.7
2023-04-01T20:10:10.300Z,2.4
2023-04-01T20:25:19.713Z,2.7
2023-04-01T20:40:29.311Z,3.5
2023-04-01T20:55:38.749Z,3.2
2023-04-01T21:10:48.300Z,3.3
2023-04-01T21:25:57.644Z,3.7
2023-04-01T21:41:06.896Z,3.9
2023-04-01T21:56:16.333Z,3.9
2023-04-01T22:11:25.533Z,3.8
2023-04-01T22:26:35.612Z,4.4
2023-04-01T22:41:45.033Z,4
2023-04-01T22:56:54.462Z,4.2
2023-04-01T23:12:04.530Z,4.7
2023-04-01T23:27:14.315Z,4.8
2023-04-01T23:42:23.811Z,4
2023-04-01T23:57:33.089Z,4.6
